Tacoma, WA

10:51 AM PDT on August 23, 2014 (GMT -0700)
Central Tacoma | Change Station
CLOSE
Current Station
Personal Weather Station
Location: Tacoma, WA
Elevation: 360 ft
Nearby Weather Stations

Elev 360 ft 47.25 °N, 122.49 °W | Updated 4 minutes ago

Clear
Clear
67.2 °F
Feels Like 67.2 °F
N
2.0
Wind Variable Wind from NW
Gusts 4.0 mph

Today
High -- | Low -- °F
--% Chance of Precip.
Yesterday
High -- | Low -- °F
Precip. -- in
6:17 AM 8:06 PM
Waning Crescent, 3% visible
Pressure 30.15 in
Visibility 10.0 miles
Clouds Clear
Dew Point 60 °F
Humidity 78%
Rainfall 0.00 in
Snow Depth Not available.
UV 4 out of 12
Pollen 3.60 out of 12
PM2.5 Moderate
Flu Activity Not available.
METAR KTIW 231653Z 26005KT 10SM CLR 17/13 A3016 RMK AO2 SLP210 T01720133

More Conditions Fewer Conditions

Pressure 30.15 in
Visibility 10.0 miles
Clouds Clear
Dew Point 60 °F
Humidity 78%
Rainfall 0.00 in
Snow Depth Not available.
UV 4 out of 12
Pollen 3.60 out of 12
PM2.5 Moderate
Flu Activity Not available.
METAR KTIW 231653Z 26005KT 10SM CLR 17/13 A3016 RMK AO2 SLP210 T01720133

More Conditions Fewer Conditions

10-Day Weather Forecast

Almanac

Astronomy

Aug. 23, 2014 Rise Set
Actual Time 6:17 AM PDT 8:06 PM PDT
Civil Twilight 5:44 AM PDT 8:39 PM PDT
Nautical Twilight 5:04 AM PDT 9:18 PM PDT
Astronomical Twilight 4:20 AM PDT 10:02 PM PDT
Moon 4:35 AM PDT 6:55 PM PDT
Length of Visible Light 14h 54m
Length of Day
13h 49m
Tomorrow will be 3m 10s shorter.
Waning Crescent, 3% of the Moon is Illuminated
Today
Waning Crescent
Aug 25
New
Sep 2
First Quarter
Sep 8
Full
Sep 15
Last Quarter

Today's Extremes

State Highs State Lows

Community

WunderPhotos

Upload Photos

1,746,537 photos uploaded!

WunderBlogs® & News

By Dr. Jeff Masters
Director of Meteorology, Weather Underground
By Kari Strenfel
Meteorologist, Weather Underground
By Christopher C. Burt
Weather Historian, Weather Underground
August 23, 2014
August 23, 2014
August 23, 2014

Nearby

Air Quality

  Air Quality AQ Index Pollutant
Yesterday Good
PM2.5
Current Moderate
PM2.5
Saturday Good
OZONE
Saturday Good
PM2.5
Sunday Good
OZONE
Sunday Good
PM2.5
Monday Good
OZONE
Monday Good
PM2.5
Tuesday Good
OZONE
Tuesday Good
PM2.5
Wednesday Good
OZONE
Wednesday Good
PM2.5

Snow Depth

Station Depth Elevation
Burnt Mountain 0 in 4200 ft
Olallie Meadows 2 in 3700 ft
Alpine Meadows 0 in 3500 ft
Morse Lake 0 in 5400 ft
Stampede Pass 1 in 3860 ft

Earthquake Activity

City Distance Mag. Time & Date
No recent earthquake activity has been reported nearby.
Minimum magnitude displayed is 2.5.

Coastal Water Temperatures

Place Temperature
Port Townsend, WA 53.1 °F
Seattle, WA 57.0 °F
Friday Harbor, WA 54.0 °F
Tacoma, WA 57.0 °F

Nearby Weather Stations